Latest Weather Observations for Willis Island

IDQ60801

Issued at 7:05 am EST Thursday 31 July 2014 (issued every 30 minutes, with the page automatically refreshed every 10 minutes)

About weather observations | Map of weather stations | Latest weather observations for QLD | Other Formats
Station Details ID: 200283 Name: WILLIS ISLAND Lat: -16.29 Lon: 149.97 Height: 9.29 m
Data from the previous 72 hours. | See also: Recent months at Willis Island
Date/Time
EST
Temp
°C
App
Temp
°C
Dew
Point
Rel
Hum
%
Delta-T
°C
Wind Press
QNH
hPa
Press
MSL
hPa
Rain
since 9 am
mm
Dir
 
Spd
km/h
Gust
km/h
Spd
kts
Gust
kts
31/07:00am 23.2 21.7 17.6 71 3.5 ESE 22 28 12 15 1017.4 - 0.0
31/06:30am 23.1 21.3 17.8 72 3.3 ESE 24 28 13 15 1017.2 - 0.0
31/06:00am 23.1 21.6 17.8 72 3.3 ESE 22 26 12 14 1017.1 1017.1 0.0
31/05:30am 23.0 20.9 17.1 69 3.6 ESE 24 28 13 15 1016.8 - 0.0
31/05:00am 23.3 21.8 17.7 71 3.5 ESE 22 26 12 14 1016.8 - 0.0
31/04:30am 23.2 21.3 17.6 71 3.5 ESE 24 28 13 15 1016.6 - 0.0
31/04:00am 23.3 21.1 17.8 71 3.4 ESE 26 30 14 16 1016.6 - 0.0
31/03:30am 23.3 20.0 18.0 72 3.3 ESE 32 37 17 20 1016.6 - 0.0
31/03:00am 23.4 19.9 18.0 71 3.4 ESE 33 37 18 20 1016.6 1016.6 0.0
31/02:30am 23.5 20.3 18.6 74 3.1 E 33 39 18 21 1016.7 - 0.0
31/02:00am 23.5 20.1 18.1 71 3.4 E 33 41 18 22 1016.9 - 0.0
31/01:30am 23.6 19.3 17.8 70 3.6 E 37 41 20 22 1017.1 - 0.0
31/01:00am 23.6 19.4 18.0 71 3.5 E 37 43 20 23 1017.2 - 0.0
31/12:30am 23.7 19.7 18.5 72 3.3 E 37 43 20 23 1017.5 - 0.0
31/12:00am 23.8 20.0 18.2 71 3.5 E 35 41 19 22 1017.5 1017.5 0.0
 
Date/Time
EST
Temp
°C
App
Temp
°C
Dew
Point
Rel
Hum
%
Delta-T
°C
Wind Press
QNH
hPa
Press
MSL
hPa
Rain
since 9 am
mm
Dir
 
Spd
km/h
Gust
km/h
Spd
kts
Gust
kts
30/11:30pm 23.8 19.6 17.2 66 4.1 E 35 41 19 22 1017.7 - 0.0
30/11:00pm 23.7 20.3 17.8 69 3.7 E 32 35 17 19 1017.9 - 0.0
30/10:30pm 23.8 20.2 17.7 68 3.8 E 33 39 18 21 1018.0 - 0.0
30/10:00pm 23.9 20.4 17.8 68 3.8 E 33 39 18 21 1018.0 - 0.0
30/09:30pm 23.8 20.0 17.3 67 4.0 E 33 39 18 21 1017.8 - 0.0
30/09:00pm 23.7 19.6 17.4 68 3.9 E 35 41 19 22 1017.8 1017.8 0.0
30/08:30pm 23.8 19.3 17.3 67 4.0 ESE 37 43 20 23 1017.7 - 0.0
30/08:00pm 23.9 19.0 16.4 63 4.6 ESE 37 43 20 23 1017.5 - 0.0
30/07:30pm 23.8 19.5 17.0 65 4.2 ESE 35 41 19 22 1017.1 - 0.0
30/07:00pm 23.7 19.4 16.9 65 4.2 ESE 35 39 19 21 1016.8 - 0.0
30/06:30pm 23.7 19.3 16.7 65 4.3 ESE 35 41 19 22 1016.5 - 0.0
30/06:00pm 23.8 19.2 16.2 62 4.6 ESE 35 43 19 23 1016.4 1016.4 0.0
30/05:30pm 24.0 19.5 16.3 62 4.7 ESE 35 41 19 22 1016.4 - 0.0
30/05:00pm 24.1 19.4 15.8 59 5.0 ESE 35 41 19 22 1016.3 - 0.0
30/04:30pm 24.2 19.5 16.9 63 4.5 ESE 37 41 20 22 1016.2 - 0.0
30/04:00pm 24.4 19.5 16.4 61 4.9 ESE 37 43 20 23 1016.0 - 0.0
30/03:30pm 24.6 20.4 17.2 63 4.6 ESE 35 41 19 22 1015.9 - 0.0
30/03:00pm 24.5 19.9 16.1 59 5.1 ESE 35 41 19 22 1016.0 1016.0 0.0
30/02:30pm 24.7 20.1 16.0 58 5.3 ESE 35 43 19 23 1016.0 - 0.0
30/02:00pm 24.8 20.7 17.4 63 4.6 ESE 35 43 19 23 1016.2 - 0.0
30/01:30pm 24.8 20.4 17.6 64 4.5 ESE 37 41 20 22 1016.5 - 0.0
30/01:00pm 25.2 20.7 17.3 61 4.9 ESE 37 43 20 23 1016.8 - 0.0
30/12:30pm 25.9 21.7 17.2 58 5.4 ESE 35 41 19 22 1017.2 - 0.0
30/12:04pm 25.5 20.7 16.7 58 5.4 E 37 41 20 22 1017.5 - 0.0
30/12:00pm 25.7 23.0 18.4 64 4.6 ESE 30 35 16 19 1017.7 1017.7 0.0
30/11:30am 25.2 22.6 18.7 67 4.1 SE 30 35 16 19 1018.3 - 0.0
30/11:00am 24.6 21.6 17.7 65 4.3 ESE 30 37 16 20 1018.7 - 0.0
30/10:30am 24.9 21.3 17.1 62 4.8 ESE 32 35 17 19 1019.2 - 0.0
30/10:00am 24.9 21.6 18.0 65 4.3 E 32 37 17 20 1019.4 - 0.0
30/09:30am 23.9 20.8 17.4 67 4.0 ESE 30 37 16 20 1019.7 - 0.0
30/09:00am 25.2 22.4 17.3 61 4.9 ESE 28 32 15 17 1019.7 1019.7 0.0
30/08:30am 24.6 22.0 16.8 62 4.8 ESE 26 30 14 16 1019.6 - 0.0
30/08:00am 24.1 21.7 16.4 62 4.7 ESE 24 26 13 14 1019.3 - 0.0
30/07:30am 23.5 21.5 17.3 68 3.8 E 24 30 13 16 1019.1 - 0.0
30/07:00am 23.3 20.7 15.8 62 4.5 E 24 30 13 16 1018.8 - 0.0
30/06:30am 23.2 20.1 15.5 62 4.6 E 26 32 14 17 1018.5 - 0.0
30/06:00am 23.3 19.9 16.8 67 4.0 E 30 33 16 18 1018.1 1018.1 0.0
30/05:30am 23.2 20.6 17.9 72 3.3 ESE 28 32 15 17 1017.7 - 0.0
30/05:00am 23.2 20.0 17.2 69 3.7 ESE 30 35 16 19 1017.4 - 0.0
30/04:30am 23.1 19.5 16.2 65 4.2 ESE 30 35 16 19 1017.2 - 0.0
30/04:00am 23.5 19.5 16.1 63 4.5 E 32 35 17 19 1017.0 - 0.0
30/03:30am 23.4 19.9 16.5 65 4.2 E 30 33 16 18 1017.1 - 0.0
30/03:00am 23.5 20.0 16.4 64 4.3 E 30 35 16 19 1017.2 1017.2 0.0
30/02:30am 23.6 20.4 17.3 67 3.9 E 30 33 16 18 1017.4 - 0.0
30/02:00am 23.2 19.3 16.5 66 4.1 ESE 32 35 17 19 1017.7 - 0.0
30/01:30am 22.1 20.1 17.4 74 2.9 SE 24 33 13 18 1018.2 - 0.0
30/01:00am 22.5 19.8 18.5 78 2.5 SE 30 35 16 19 1018.5 - 0.0
30/12:30am 22.6 18.4 18.1 76 2.8 SE 37 41 20 22 1018.7 - 0.0
30/12:00am 23.3 19.9 17.7 71 3.5 SE 32 37 17 20 1018.9 1018.9 0.0
 
Date/Time
EST
Temp
°C
App
Temp
°C
Dew
Point
Rel
Hum
%
Delta-T
°C
Wind Press
QNH
hPa
Press
MSL
hPa
Rain
since 9 am
mm
Dir
 
Spd
km/h
Gust
km/h
Spd
kts
Gust
kts
29/11:30pm 23.2 20.3 18.8 76 2.8 SE 32 39 17 21 1019.0 - 0.0
29/11:00pm 23.7 20.8 17.9 70 3.6 ESE 30 33 16 18 1019.0 - 0.0
29/10:30pm 23.3 20.4 18.0 72 3.3 SE 30 35 16 19 1019.1 - 0.0
29/10:00pm 23.2 18.6 18.1 73 3.2 ESE 39 46 21 25 1019.2 - 0.0
29/09:30pm 23.5 18.9 18.1 71 3.4 ESE 39 46 21 25 1019.0 - 0.0
29/09:00pm 23.7 19.2 18.3 71 3.4 ESE 39 44 21 24 1018.7 1018.7 0.0
29/08:30pm 23.7 19.8 17.9 70 3.6 ESE 35 43 19 23 1018.5 - 0.0
29/08:00pm 23.7 19.8 17.8 69 3.7 ESE 35 39 19 21 1018.5 - 0.0
29/07:30pm 23.8 19.5 16.8 65 4.3 ESE 35 41 19 22 1018.2 - 0.0
29/07:00pm 23.7 20.9 18.1 71 3.5 SE 30 39 16 21 1018.0 - 0.0
29/06:30pm 23.0 19.0 18.4 75 2.9 SE 37 43 20 23 1017.9 - 0.0
29/06:10pm 23.1 18.3 18.5 75 2.9 SE 41 43 22 23 1017.7 - 0.0
29/06:00pm 23.9 20.7 18.5 72 3.4 ESE 33 39 18 21 1017.5 1017.5 0.0
29/05:30pm 23.9 21.1 17.3 66 4.1 ESE 28 35 15 19 1017.3 - 0.0
29/05:00pm 23.6 22.1 17.8 70 3.6 SE 22 26 12 14 1017.2 - 0.0
29/04:30pm 23.7 20.8 17.9 70 3.6 SE 30 33 16 18 1017.1 - 0.0
29/04:00pm 23.9 20.7 17.3 66 4.1 SE 30 33 16 18 1016.9 - 0.0
29/03:30pm 23.8 20.7 18.4 72 3.4 ESE 32 39 17 21 1016.9 - 0.0
29/03:00pm 24.6 22.7 18.6 69 3.8 ESE 26 32 14 17 1016.8 1016.8 0.0
29/02:30pm 25.0 20.9 18.2 66 4.3 ESE 37 44 20 24 1017.0 - 0.0
29/02:00pm 25.3 21.9 17.6 62 4.8 ESE 32 39 17 21 1017.5 - 0.0
29/01:30pm 25.4 21.8 17.6 62 4.9 SE 33 37 18 20 1017.9 - 0.0
29/01:00pm 25.4 21.8 17.6 62 4.9 ESE 33 39 18 21 1018.2 - 0.0
29/12:30pm 25.4 21.7 17.4 61 5.0 ESE 33 39 18 21 1018.6 - 0.0
29/12:00pm 25.5 21.7 17.1 59 5.2 ESE 33 39 18 21 1018.9 1018.9 0.0
29/11:30am 25.1 21.1 17.7 63 4.6 SE 35 41 19 22 1019.3 - 0.0
29/11:00am 25.1 21.6 16.4 58 5.3 E 30 43 16 23 1019.4 - 0.0
29/10:30am 25.6 21.3 15.5 53 6.1 SE 32 37 17 20 1019.5 - 0.0
29/10:00am 24.8 20.0 15.7 57 5.5 SE 35 39 19 21 1019.8 - 0.0
29/09:30am 24.7 20.1 16.2 59 5.2 SE 35 41 19 22 1019.9 - 0.0
29/09:00am 24.6 19.7 16.4 60 5.0 SE 37 44 20 24 1019.9 1019.9 0.2
29/08:30am 24.4 18.8 16.4 61 4.9 SE 41 46 22 25 1019.7 - 0.2
29/08:00am 24.1 19.3 15.6 59 5.1 SE 35 39 19 21 1019.3 - 0.2
29/07:30am 24.0 19.2 15.7 59 5.0 SE 35 43 19 23 1019.2 - 0.2
29/07:00am 23.2 18.4 15.7 62 4.5 SE 35 41 19 22 1018.9 - 0.2
29/06:30am 23.0 18.4 16.0 64 4.2 SE 35 41 19 22 1018.7 - 0.2
29/06:00am 23.0 18.2 15.7 63 4.4 SE 35 41 19 22 1018.4 1018.4 0.2
29/05:30am 22.9 18.2 15.9 64 4.2 SE 35 41 19 22 1018.1 - 0.2
29/05:00am 23.0 18.7 15.9 64 4.3 ESE 33 39 18 21 1017.8 - 0.2
29/04:30am 23.1 19.3 17.1 69 3.7 SE 33 37 18 20 1017.6 - 0.2
29/04:00am 22.9 18.7 16.3 66 4.0 SE 33 41 18 22 1017.5 - 0.2
29/03:30am 22.8 19.1 16.9 69 3.6 SE 32 37 17 20 1017.5 - 0.2
29/03:00am 22.7 18.7 16.3 67 3.9 SE 32 37 17 20 1017.5 1017.5 0.2
29/02:30am 22.9 18.7 16.1 65 4.1 SE 33 39 18 21 1017.5 - 0.2
29/02:00am 23.0 18.9 16.0 64 4.2 ESE 32 41 17 22 1017.6 - 0.2
29/01:30am 23.2 18.9 15.3 61 4.7 ESE 32 37 17 20 1017.8 - 0.2
29/01:00am 23.4 19.8 16.3 64 4.3 ESE 30 35 16 19 1018.1 - 0.2
29/12:30am 23.4 19.5 16.5 65 4.2 E 32 37 17 20 1018.3 - 0.2
29/12:00am 23.3 19.5 16.6 66 4.1 E 32 35 17 19 1018.4 1018.4 0.2
 
Date/Time
EST
Temp
°C
App
Temp
°C
Dew
Point
Rel
Hum
%
Delta-T
°C
Wind Press
QNH
hPa
Press
MSL
hPa
Rain
since 9 am
mm
Dir
 
Spd
km/h
Gust
km/h
Spd
kts
Gust
kts
28/11:30pm 23.3 19.1 15.8 62 4.5 ESE 32 37 17 20 1018.6 - 0.2
28/11:00pm 23.3 19.3 16.6 66 4.1 ESE 33 39 18 21 1018.8 - 0.2
28/10:30pm 23.3 19.3 16.8 67 4.0 ESE 33 39 18 21 1018.9 - 0.2
28/10:00pm 23.4 19.4 16.7 66 4.1 ESE 33 39 18 21 1018.9 - 0.2
28/09:30pm 23.5 19.5 16.6 65 4.2 ESE 33 41 18 22 1019.0 - 0.2
28/09:00pm 23.4 19.8 17.6 70 3.6 ESE 33 39 18 21 1018.9 1018.9 0.2
28/08:30pm 23.3 19.5 17.3 69 3.7 ESE 33 41 18 22 1018.7 - 0.2
28/08:00pm 23.5 19.4 17.4 68 3.8 ESE 35 41 19 22 1018.6 - 0.2
28/07:30pm 23.6 20.1 17.8 70 3.6 ESE 33 39 18 21 1018.3 - 0.2
28/07:00pm 23.5 20.0 17.9 71 3.5 ESE 33 39 18 21 1017.9 - 0.2
28/06:30pm 23.4 20.0 18.1 72 3.3 ESE 33 39 18 21 1017.7 - 0.2
28/06:00pm 23.5 20.1 18.2 72 3.3 ESE 33 39 18 21 1017.4 1017.4 0.2
28/05:30pm 23.7 20.5 18.5 72 3.3 ESE 33 39 18 21 1017.0 - 0.2
28/05:00pm 24.1 20.4 18.4 70 3.6 ESE 35 41 19 22 1016.9 - 0.2
28/04:30pm 24.2 20.4 18.1 68 3.8 E 35 41 19 22 1016.7 - 0.2
28/04:00pm 24.5 20.7 18.0 67 4.1 E 35 43 19 23 1016.6 - 0.2
28/03:30pm 24.8 21.0 18.1 66 4.2 ESE 35 41 19 22 1016.5 - 0.2
28/03:00pm 24.9 20.9 17.7 64 4.5 ESE 35 41 19 22 1016.6 1016.6 0.2
28/02:30pm 25.0 20.9 18.3 66 4.2 ESE 37 41 20 22 1016.8 - 0.2
28/02:00pm 25.2 20.9 17.7 63 4.7 ESE 37 43 20 23 1017.2 - 0.2
28/01:30pm 25.3 20.9 17.6 62 4.8 ESE 37 43 20 23 1017.5 - 0.2
28/01:00pm 25.4 21.0 17.6 62 4.9 ESE 37 44 20 24 1017.9 - 0.2
28/12:30pm 25.4 21.4 18.4 65 4.4 ESE 37 44 20 24 1018.4 - 0.2
28/12:00pm 25.4 20.9 18.3 65 4.5 ESE 39 44 21 24 1018.7 1018.7 0.2
28/11:30am 25.5 21.2 18.6 65 4.4 ESE 39 44 21 24 1019.1 - 0.2
28/11:00am 25.3 21.2 18.2 64 4.5 ESE 37 43 20 23 1019.4 - 0.2
28/10:30am 24.4 20.8 18.5 69 3.7 E 35 41 19 22 1019.7 - 0.0
28/10:00am 25.2 21.3 17.9 64 4.6 ESE 35 44 19 24 1019.9 - 0.0
28/09:30am 24.9 20.4 18.2 66 4.2 ESE 39 43 21 23 1020.0 - 0.0
28/09:00am 24.8 21.2 18.5 68 4.0 ESE 35 43 19 23 1020.0 1020.0 0.0
28/08:30am 24.4 19.2 16.6 61 4.8 ESE 39 46 21 25 1019.6 - 0.0
28/08:00am 24.2 19.1 17.8 67 4.0 ESE 41 48 22 26 1019.1 - 0.0
28/07:30am 23.4 17.9 17.6 70 3.6 ESE 43 52 23 28 1018.6 - 0.0

Other Formats:

Comma delimited format used in spreadsheet applications
http://www.bom.gov.au/fwo/IDQ60801/IDQ60801.94299.axf

JavaScript Object Notation format (JSON) in row-major order
http://www.bom.gov.au/fwo/IDQ60801/IDQ60801.94299.json